createdAt,value
2019-04-29T00:00:08.421Z,50.10
2019-04-29T00:02:38.826Z,50.80
2019-04-29T00:05:09.550Z,51.70
2019-04-29T00:07:40.090Z,52.00
2019-04-29T00:10:12.073Z,52.30
2019-04-29T00:12:42.502Z,53.20
2019-04-29T00:15:30.060Z,53.20
2019-04-29T00:18:03.537Z,54.20
2019-04-29T00:20:38.524Z,54.60
2019-04-29T00:23:09.088Z,55.00
2019-04-29T00:25:41.532Z,55.10
2019-04-29T00:28:12.111Z,55.60
2019-04-29T00:30:42.666Z,56.00
2019-04-29T00:33:15.254Z,56.80
2019-04-29T00:35:46.501Z,57.20
2019-04-29T00:38:36.929Z,57.20
2019-04-29T00:41:25.039Z,57.50
2019-04-29T00:43:57.033Z,57.60
2019-04-29T00:46:28.334Z,57.80
2019-04-29T00:49:00.066Z,58.10
2019-04-29T00:51:30.517Z,58.10
2019-04-29T00:54:02.572Z,58.40
2019-04-29T00:56:33.033Z,58.60
2019-04-29T00:59:04.807Z,58.60
2019-04-29T01:01:35.187Z,58.70
2019-04-29T01:04:05.839Z,58.90
2019-04-29T01:06:36.331Z,59.20
2019-04-29T01:09:10.881Z,59.30
2019-04-29T01:11:41.319Z,59.30
2019-04-29T01:14:11.712Z,59.20
2019-04-29T01:16:43.691Z,59.30
2019-04-29T01:19:14.108Z,59.50
2019-04-29T01:21:44.533Z,59.40
2019-04-29T01:24:14.914Z,59.50
2019-04-29T01:26:46.902Z,59.80
2019-04-29T01:29:18.850Z,60.10
2019-04-29T01:31:49.339Z,60.20
2019-04-29T01:34:21.450Z,60.40
2019-04-29T01:36:51.929Z,60.60
2019-04-29T01:39:24.023Z,60.60
2019-04-29T01:41:56.111Z,60.60
2019-04-29T01:44:28.083Z,60.90
2019-04-29T01:46:58.578Z,61.10
2019-04-29T01:49:28.955Z,61.00
2019-04-29T01:51:59.368Z,61.20
2019-04-29T01:54:29.855Z,61.20
2019-04-29T01:57:00.255Z,61.30
2019-04-29T01:59:30.717Z,61.00
2019-04-29T02:02:01.141Z,61.20
2019-04-29T02:04:31.595Z,61.10
2019-04-29T02:07:01.995Z,61.50
2019-04-29T02:09:33.963Z,61.60
2019-04-29T02:12:07.578Z,61.40
2019-04-29T02:14:37.944Z,61.40
2019-04-29T02:17:08.361Z,61.60
2019-04-29T02:19:38.750Z,61.60
2019-04-29T02:22:10.814Z,61.70
2019-04-29T02:24:42.766Z,61.90
2019-04-29T02:27:14.024Z,62.10
2019-04-29T02:29:44.412Z,62.20
2019-04-29T02:32:15.068Z,62.40
2019-04-29T02:34:47.029Z,62.60
2019-04-29T02:37:19.013Z,62.70
2019-04-29T02:39:54.026Z,62.90
2019-04-29T02:42:43.603Z,62.80
2019-04-29T02:45:19.054Z,62.60
2019-04-29T02:47:49.471Z,62.70
2019-04-29T02:50:19.970Z,62.90
2019-04-29T02:52:50.738Z,62.90
2019-04-29T02:55:22.815Z,63.00
2019-04-29T02:57:55.219Z,62.80
2019-04-29T03:00:30.205Z,63.20
2019-04-29T03:03:11.578Z,63.10
2019-04-29T03:05:43.531Z,63.50
2019-04-29T03:08:13.961Z,63.40
2019-04-29T03:10:44.382Z,63.30
2019-04-29T03:13:15.166Z,63.40
2019-04-29T03:15:46.117Z,63.40
2019-04-29T03:18:17.152Z,63.80
2019-04-29T03:20:58.328Z,63.90
2019-04-29T03:23:29.039Z,63.90
2019-04-29T03:26:00.898Z,64.10
2019-04-29T03:28:31.426Z,64.00
2019-04-29T03:31:03.008Z,64.20
2019-04-29T03:33:36.897Z,64.70
2019-04-29T03:36:07.467Z,64.80
2019-04-29T03:38:37.912Z,64.60
2019-04-29T03:41:08.522Z,64.20
2019-04-29T03:43:40.574Z,64.30
2019-04-29T03:46:10.954Z,64.50
2019-04-29T03:48:41.370Z,64.50
2019-04-29T03:51:11.830Z,64.20
2019-04-29T03:53:42.347Z,64.60
2019-04-29T03:56:12.737Z,64.70
2019-04-29T03:58:43.182Z,64.50
2019-04-29T04:01:15.284Z,64.70
2019-04-29T04:03:56.469Z,64.80
2019-04-29T04:06:31.227Z,65.00
2019-04-29T04:09:15.329Z,65.00
2019-04-29T04:11:45.705Z,65.00
2019-04-29T04:14:17.790Z,65.10
2019-04-29T04:16:57.102Z,65.10
2019-04-29T04:19:30.082Z,65.20
2019-04-29T04:22:01.976Z,65.20
2019-04-29T04:24:32.562Z,65.70
2019-04-29T04:27:02.962Z,65.50
2019-04-29T04:29:33.452Z,65.60
2019-04-29T04:32:03.880Z,65.50
2019-04-29T04:34:34.305Z,65.40
2019-04-29T04:37:04.756Z,65.40
2019-04-29T04:39:36.801Z,65.30
2019-04-29T04:42:07.262Z,65.20
2019-04-29T04:44:49.947Z,65.40
2019-04-29T04:47:20.648Z,65.30
2019-04-29T04:49:52.822Z,65.10
2019-04-29T04:52:23.294Z,65.10
2019-04-29T04:54:55.594Z,64.90
2019-04-29T04:57:26.159Z,65.50
2019-04-29T04:59:56.586Z,66.10
2019-04-29T05:02:28.613Z,66.00
2019-04-29T05:05:01.914Z,65.80
2019-04-29T05:07:32.355Z,65.40
2019-04-29T05:10:02.789Z,65.80
2019-04-29T05:12:33.308Z,66.10
2019-04-29T05:15:03.943Z,66.20
2019-04-29T05:17:34.355Z,66.20
2019-04-29T05:20:06.488Z,65.90
2019-04-29T05:22:36.998Z,66.00
2019-04-29T05:25:07.470Z,65.90
2019-04-29T05:27:37.929Z,66.20
2019-04-29T05:30:08.686Z,66.20
2019-04-29T05:32:40.707Z,66.00
2019-04-29T05:35:14.152Z,66.20
2019-04-29T05:37:46.240Z,66.40
2019-04-29T05:40:18.318Z,66.40
2019-04-29T05:42:52.549Z,66.10
2019-04-29T05:45:22.433Z,66.20
2019-04-29T05:48:09.643Z,66.60
2019-04-29T05:50:53.871Z,66.30
2019-04-29T05:53:25.948Z,66.50
2019-04-29T05:55:56.369Z,66.50
2019-04-29T05:58:28.263Z,66.30
2019-04-29T06:01:00.239Z,66.10
2019-04-29T06:03:33.531Z,66.10
2019-04-29T06:06:03.010Z,66.10
2019-04-29T06:08:34.580Z,65.60
2019-04-29T06:11:05.547Z,66.00
2019-04-29T06:13:36.626Z,65.90
2019-04-29T06:16:07.232Z,65.40
2019-04-29T06:18:40.755Z,65.70
2019-04-29T06:21:09.904Z,65.60
2019-04-29T06:23:41.963Z,64.80
2019-04-29T06:26:12.453Z,64.80
2019-04-29T06:28:44.465Z,64.80
2019-04-29T06:31:15.065Z,64.70
2019-04-29T06:33:46.291Z,64.50
2019-04-29T06:36:16.710Z,64.30
2019-04-29T06:38:47.128Z,64.40
2019-04-29T06:41:17.636Z,64.30
2019-04-29T06:43:52.391Z,63.80
2019-04-29T06:46:21.694Z,63.60
2019-04-29T06:48:52.091Z,63.50
2019-04-29T06:51:22.583Z,63.50
2019-04-29T06:53:52.987Z,63.80
2019-04-29T06:56:23.434Z,63.90
2019-04-29T06:58:53.923Z,64.00
2019-04-29T07:01:25.191Z,64.30
2019-04-29T07:03:59.448Z,64.30
2019-04-29T07:06:28.593Z,64.60
2019-04-29T07:08:59.265Z,64.70
2019-04-29T07:11:31.896Z,64.80
2019-04-29T07:14:01.765Z,64.60
2019-04-29T07:16:33.681Z,64.40
2019-04-29T07:19:04.209Z,64.20
2019-04-29T07:21:34.611Z,64.10
2019-04-29T07:24:05.318Z,64.00
2019-04-29T07:26:35.694Z,64.00
2019-04-29T07:29:07.539Z,63.90
2019-04-29T07:31:38.119Z,63.90
2019-04-29T07:34:08.673Z,63.70
2019-04-29T07:36:39.196Z,63.50
2019-04-29T07:39:09.689Z,63.70
2019-04-29T07:41:40.270Z,64.30
2019-04-29T07:44:13.758Z,64.10
2019-04-29T07:46:56.841Z,63.60
2019-04-29T07:49:19.529Z,63.60
2019-04-29T07:51:50.027Z,62.70
2019-04-29T07:54:21.955Z,62.80
2019-04-29T07:56:52.508Z,62.50
2019-04-29T07:59:24.375Z,62.50
2019-04-29T08:01:59.831Z,62.30
2019-04-29T08:04:29.002Z,62.30
2019-04-29T08:06:59.541Z,62.40
2019-04-29T08:09:31.324Z,62.00
2019-04-29T08:12:02.545Z,61.80
2019-04-29T08:14:33.524Z,61.50
2019-04-29T08:17:03.952Z,61.60
2019-04-29T08:19:35.918Z,61.20
2019-04-29T08:22:06.338Z,61.50
2019-04-29T08:24:37.511Z,61.50
2019-04-29T08:27:08.100Z,61.80
2019-04-29T08:29:38.790Z,61.90
2019-04-29T08:32:10.960Z,61.60
2019-04-29T08:34:43.006Z,60.60
2019-04-29T08:37:13.487Z,61.00
2019-04-29T08:39:43.963Z,61.20
2019-04-29T08:42:15.973Z,60.50
2019-04-29T08:45:04.247Z,59.80
2019-04-29T08:47:41.995Z,59.40
2019-04-29T08:50:14.081Z,59.80
2019-04-29T08:52:44.633Z,58.90
2019-04-29T08:55:15.043Z,58.00
2019-04-29T08:57:45.457Z,57.00
2019-04-29T09:00:19.128Z,56.60
2019-04-29T09:02:49.583Z,55.50
2019-04-29T09:05:20.876Z,54.30
2019-04-29T09:07:52.468Z,53.80
2019-04-29T09:10:23.455Z,53.60
2019-04-29T09:12:53.894Z,52.50
2019-04-29T09:15:24.282Z,52.40
2019-04-29T09:17:54.649Z,52.60
2019-04-29T09:20:25.181Z,52.70
2019-04-29T09:23:09.442Z,52.60
2019-04-29T09:26:02.917Z,52.70
2019-04-29T09:28:30.508Z,52.70
2019-04-29T09:31:00.917Z,53.40
2019-04-29T09:33:31.391Z,53.30
2019-04-29T09:36:01.803Z,53.40
2019-04-29T09:38:32.507Z,53.70
2019-04-29T09:41:07.349Z,54.00
2019-04-29T09:43:39.358Z,54.30
2019-04-29T09:46:11.806Z,55.30
2019-04-29T09:48:42.197Z,55.20
2019-04-29T09:51:17.578Z,55.40
2019-04-29T09:53:44.852Z,55.80
2019-04-29T09:56:15.323Z,55.90
2019-04-29T09:58:45.709Z,56.30
2019-04-29T10:01:19.116Z,56.80
2019-04-29T10:03:51.518Z,57.40
2019-04-29T10:06:23.773Z,57.90
2019-04-29T10:08:54.250Z,58.00
2019-04-29T10:11:24.667Z,58.30
2019-04-29T10:13:55.226Z,58.30
2019-04-29T10:16:27.261Z,57.90
2019-04-29T10:19:00.714Z,58.50
2019-04-29T10:21:31.308Z,59.10
2019-04-29T10:24:01.719Z,58.50
2019-04-29T10:26:32.076Z,58.50
2019-04-29T10:29:06.810Z,58.70
2019-04-29T10:31:37.253Z,58.70
2019-04-29T10:34:07.683Z,58.40
2019-04-29T10:36:39.585Z,58.00
2019-04-29T10:39:29.453Z,57.70
2019-04-29T10:42:01.631Z,57.80
2019-04-29T10:44:50.118Z,57.30
2019-04-29T10:47:22.084Z,56.70
2019-04-29T10:50:00.062Z,56.40
2019-04-29T10:52:34.454Z,56.30
2019-04-29T10:55:04.697Z,56.30
2019-04-29T10:57:35.266Z,56.20
2019-04-29T11:00:11.148Z,56.30
2019-04-29T11:02:44.822Z,55.80
2019-04-29T11:05:28.866Z,55.30
2019-04-29T11:08:02.635Z,54.80
2019-04-29T11:10:34.247Z,53.80
2019-04-29T11:13:05.363Z,52.70
2019-04-29T11:15:37.075Z,52.20
2019-04-29T11:18:08.030Z,52.30
2019-04-29T11:20:38.443Z,52.70
2019-04-29T11:23:22.327Z,53.30
2019-04-29T11:26:09.711Z,53.90
2019-04-29T11:28:40.317Z,53.80
2019-04-29T11:31:14.001Z,54.30
2019-04-29T11:33:47.302Z,54.40
2019-04-29T11:36:25.288Z,54.80
2019-04-29T11:38:55.741Z,54.50
2019-04-29T11:41:28.640Z,54.30
2019-04-29T11:43:59.036Z,54.10
2019-04-29T11:46:29.632Z,54.70
2019-04-29T11:49:01.693Z,55.20
2019-04-29T11:51:41.687Z,55.60
2019-04-29T11:54:08.191Z,55.70
2019-04-29T11:56:39.956Z,56.50
2019-04-29T11:59:12.032Z,56.00
2019-04-29T12:01:51.259Z,56.30
2019-04-29T12:04:28.542Z,56.50
2019-04-29T12:06:58.825Z,57.10
2019-04-29T12:09:30.495Z,57.00
2019-04-29T12:12:01.753Z,56.80
2019-04-29T12:14:37.872Z,56.90
2019-04-29T12:17:14.204Z,56.80
2019-04-29T12:19:50.167Z,56.60
2019-04-29T12:22:30.102Z,57.10
2019-04-29T12:24:52.703Z,57.30
2019-04-29T12:27:23.283Z,57.60
2019-04-29T12:29:57.021Z,58.40
2019-04-29T12:32:30.269Z,58.10
2019-04-29T12:35:07.994Z,58.20
2019-04-29T12:37:40.106Z,58.30
2019-04-29T12:40:21.598Z,57.90
2019-04-29T12:42:56.487Z,58.10
2019-04-29T12:45:28.454Z,57.90
2019-04-29T12:47:59.265Z,58.20
2019-04-29T12:50:29.759Z,58.40
2019-04-29T12:53:00.241Z,58.90
2019-04-29T12:55:44.323Z,59.00
2019-04-29T12:58:07.531Z,59.60
2019-04-29T13:00:47.493Z,60.10
2019-04-29T13:03:24.930Z,60.10
2019-04-29T13:06:02.551Z,61.00
2019-04-29T13:08:33.599Z,61.50
2019-04-29T13:11:05.758Z,61.70
2019-04-29T13:13:37.705Z,61.70
2019-04-29T13:16:26.896Z,61.70
2019-04-29T13:19:12.331Z,62.10
2019-04-29T13:21:39.508Z,62.40
2019-04-29T13:24:23.104Z,62.50
2019-04-29T13:26:43.188Z,62.50
2019-04-29T13:29:26.759Z,62.50
2019-04-29T13:31:47.392Z,62.30
2019-04-29T13:34:24.024Z,62.40
2019-04-29T13:37:06.510Z,62.40
2019-04-29T13:39:38.397Z,62.40
2019-04-29T13:42:02.578Z,62.20
2019-04-29T13:44:28.705Z,63.40
2019-04-29T13:47:17.267Z,62.40
2019-04-29T13:49:52.038Z,62.40
2019-04-29T13:52:22.599Z,61.80
2019-04-29T13:54:53.071Z,61.60
2019-04-29T13:57:23.451Z,60.90
2019-04-29T14:00:13.972Z,61.90
2019-04-29T14:02:59.170Z,61.80
2019-04-29T14:05:32.436Z,62.50
2019-04-29T14:08:01.422Z,62.50
2019-04-29T14:10:31.860Z,62.20
2019-04-29T14:13:10.882Z,62.70
2019-04-29T14:15:38.128Z,63.10
2019-04-29T14:18:11.067Z,63.30
2019-04-29T14:20:38.834Z,63.60
2019-04-29T14:23:09.228Z,63.90
2019-04-29T14:25:39.702Z,64.40
2019-04-29T14:28:11.838Z,64.80
2019-04-29T14:30:43.590Z,65.20
2019-04-29T14:33:19.218Z,65.40
2019-04-29T14:36:00.080Z,65.70
2019-04-29T14:38:30.598Z,65.80
2019-04-29T14:41:01.298Z,65.80
2019-04-29T14:43:43.943Z,65.60
2019-04-29T14:46:24.983Z,65.50
2019-04-29T14:49:06.306Z,65.50
2019-04-29T14:51:37.963Z,65.80
2019-04-29T14:54:08.583Z,66.20
2019-04-29T14:56:39.103Z,66.00
2019-04-29T14:59:09.555Z,65.50
2019-04-29T15:01:41.621Z,65.20
2019-04-29T15:04:18.545Z,64.70
2019-04-29T15:06:46.049Z,64.50
2019-04-29T15:09:18.179Z,64.20
2019-04-29T15:11:58.790Z,63.90
2019-04-29T15:14:41.669Z,63.70
2019-04-29T15:17:19.716Z,63.80
2019-04-29T15:19:56.091Z,63.70
2019-04-29T15:22:31.290Z,63.40
2019-04-29T15:25:03.297Z,63.30
2019-04-29T15:27:33.743Z,63.50
2019-04-29T15:30:07.190Z,63.40
2019-04-29T15:32:37.739Z,63.40
2019-04-29T15:35:08.412Z,62.50
2019-04-29T15:37:38.861Z,61.70
2019-04-29T15:40:09.833Z,61.60
2019-04-29T15:42:43.206Z,61.10
2019-04-29T15:45:12.843Z,60.80
2019-04-29T15:47:45.702Z,60.30
2019-04-29T15:50:19.302Z,60.20
2019-04-29T15:52:49.251Z,59.90
2019-04-29T15:55:19.717Z,59.60
2019-04-29T15:57:51.890Z,59.80
2019-04-29T16:00:23.612Z,59.90
2019-04-29T16:02:54.833Z,59.90
2019-04-29T16:06:04.433Z,59.70
2019-04-29T16:08:33.396Z,59.70
2019-04-29T16:11:22.028Z,59.60
2019-04-29T16:14:08.347Z,59.70
2019-04-29T16:16:26.019Z,59.70
2019-04-29T16:19:07.295Z,59.80
2019-04-29T16:21:32.355Z,59.60
2019-04-29T16:24:00.862Z,59.60
2019-04-29T16:26:32.858Z,59.30
2019-04-29T16:29:12.440Z,59.30
2019-04-29T16:31:35.537Z,59.40
2019-04-29T16:34:06.265Z,59.30
2019-04-29T16:36:37.777Z,59.30
2019-04-29T16:39:08.357Z,60.00
2019-04-29T16:41:51.005Z,59.50
2019-04-29T16:44:34.689Z,59.60
2019-04-29T16:46:52.213Z,59.30
2019-04-29T16:49:22.987Z,59.40
2019-04-29T16:51:55.949Z,59.70
2019-04-29T16:54:28.352Z,59.60
2019-04-29T16:56:58.566Z,59.70
2019-04-29T16:59:30.447Z,59.80
2019-04-29T17:02:00.907Z,59.90
2019-04-29T17:04:33.045Z,60.00
2019-04-29T17:07:13.892Z,60.00
2019-04-29T17:09:48.285Z,60.40
2019-04-29T17:12:18.810Z,60.80
2019-04-29T17:15:03.976Z,61.10
2019-04-29T17:17:28.969Z,61.30
2019-04-29T17:19:55.242Z,61.70
2019-04-29T17:22:27.460Z,61.80
2019-04-29T17:24:58.185Z,61.90
2019-04-29T17:27:35.111Z,61.90
2019-04-29T17:30:08.789Z,62.00
2019-04-29T17:32:47.064Z,62.10
2019-04-29T17:35:21.306Z,62.20
2019-04-29T17:37:48.137Z,62.40
2019-04-29T17:40:20.043Z,62.60
2019-04-29T17:42:51.995Z,62.50
2019-04-29T17:45:30.619Z,62.60
2019-04-29T17:48:01.958Z,62.70
2019-04-29T17:50:34.060Z,62.80
2019-04-29T17:53:07.762Z,63.20
2019-04-29T17:55:40.990Z,63.10
2019-04-29T17:58:19.467Z,63.00
2019-04-29T18:00:56.192Z,63.10
2019-04-29T18:03:34.783Z,63.10
2019-04-29T18:06:07.661Z,63.20
2019-04-29T18:08:42.574Z,63.20
2019-04-29T18:11:14.972Z,63.20
2019-04-29T18:13:45.944Z,63.90
2019-04-29T18:16:25.910Z,63.20
2019-04-29T18:18:58.558Z,63.40
2019-04-29T18:21:48.322Z,63.50
2019-04-29T18:24:25.346Z,63.50
2019-04-29T18:26:57.446Z,63.50
2019-04-29T18:29:27.909Z,63.60
2019-04-29T18:32:00.480Z,64.40
2019-04-29T18:34:33.674Z,64.00
2019-04-29T18:37:06.271Z,64.00
2019-04-29T18:39:36.626Z,63.70
2019-04-29T18:42:08.686Z,63.80
2019-04-29T18:44:53.873Z,63.90
2019-04-29T18:47:21.900Z,64.50
2019-04-29T18:49:45.423Z,63.70
2019-04-29T18:52:25.660Z,63.70
2019-04-29T18:54:49.113Z,63.50
2019-04-29T18:57:27.853Z,63.40
2019-04-29T18:59:51.607Z,63.50
2019-04-29T19:02:21.977Z,63.50
2019-04-29T19:04:57.044Z,63.50
2019-04-29T19:07:27.418Z,63.50
2019-04-29T19:09:59.329Z,63.60
2019-04-29T19:12:29.693Z,63.70
2019-04-29T19:15:05.145Z,63.70
2019-04-29T19:17:36.751Z,63.90
2019-04-29T19:20:13.115Z,63.90
2019-04-29T19:22:39.968Z,64.20
2019-04-29T19:25:12.107Z,64.30
2019-04-29T19:27:45.453Z,64.10
2019-04-29T19:30:21.028Z,64.40
2019-04-29T19:32:49.146Z,64.60
2019-04-29T19:35:19.712Z,64.60
2019-04-29T19:37:50.141Z,64.80
2019-04-29T19:40:25.753Z,64.80
2019-04-29T19:42:56.276Z,64.70
2019-04-29T19:45:28.212Z,65.00
2019-04-29T19:47:58.732Z,65.00
2019-04-29T19:50:30.908Z,64.80
2019-04-29T19:53:05.021Z,64.50
2019-04-29T19:55:41.833Z,64.50
2019-04-29T19:58:07.175Z,64.70
2019-04-29T20:00:38.971Z,64.80
2019-04-29T20:03:22.898Z,64.90
2019-04-29T20:05:46.416Z,65.10
2019-04-29T20:08:37.705Z,65.00
2019-04-29T20:10:52.468Z,65.10
2019-04-29T20:13:30.470Z,65.10
2019-04-29T20:16:09.938Z,65.00
2019-04-29T20:19:00.964Z,64.80
2019-04-29T20:21:28.285Z,64.70
2019-04-29T20:23:56.299Z,64.90
2019-04-29T20:26:29.603Z,64.80
2019-04-29T20:28:59.091Z,64.60
2019-04-29T20:31:29.768Z,64.50
2019-04-29T20:34:01.621Z,64.30
2019-04-29T20:36:40.938Z,64.20
2019-04-29T20:39:06.900Z,64.00
2019-04-29T20:41:41.961Z,64.30
2019-04-29T20:44:10.397Z,64.10
2019-04-29T20:46:45.639Z,63.80
2019-04-29T20:49:13.308Z,63.90
2019-04-29T20:51:50.657Z,63.90
2019-04-29T20:54:19.786Z,63.70
2019-04-29T20:57:02.034Z,63.80
2019-04-29T20:59:25.866Z,63.80
2019-04-29T21:02:11.112Z,63.80
2019-04-29T21:04:45.181Z,63.90
2019-04-29T21:07:07.015Z,63.70
2019-04-29T21:09:37.662Z,63.70
2019-04-29T21:12:15.714Z,63.70
2019-04-29T21:14:47.590Z,63.70
2019-04-29T21:17:28.767Z,63.70
2019-04-29T21:19:50.166Z,63.60
2019-04-29T21:22:23.557Z,63.40
2019-04-29T21:24:55.134Z,63.20
2019-04-29T21:27:27.326Z,63.10
2019-04-29T21:29:57.793Z,63.00
2019-04-29T21:32:30.539Z,63.00
2019-04-29T21:35:10.155Z,62.80
2019-04-29T21:37:43.967Z,62.80
2019-04-29T21:40:24.305Z,62.60
2019-04-29T21:42:56.305Z,62.60
2019-04-29T21:45:26.717Z,62.70
2019-04-29T21:47:57.174Z,63.00
2019-04-29T21:50:33.868Z,62.90
2019-04-29T21:53:02.032Z,62.90
2019-04-29T21:55:31.872Z,62.80
2019-04-29T21:58:02.462Z,62.70
2019-04-29T22:00:34.887Z,62.80
2019-04-29T22:03:05.461Z,62.80
2019-04-29T22:05:35.983Z,62.90
2019-04-29T22:08:06.653Z,62.80
2019-04-29T22:10:38.525Z,62.90
2019-04-29T22:13:09.304Z,63.10
2019-04-29T22:15:42.436Z,63.00
2019-04-29T22:18:13.985Z,63.50
2019-04-29T22:20:44.139Z,63.20
2019-04-29T22:23:17.002Z,63.30
2019-04-29T22:25:47.310Z,63.30
2019-04-29T22:28:19.718Z,63.30
2019-04-29T22:30:54.927Z,63.10
2019-04-29T22:33:22.249Z,63.10
2019-04-29T22:35:52.664Z,62.90
2019-04-29T22:38:25.047Z,62.80
2019-04-29T22:40:57.074Z,62.90
2019-04-29T22:43:29.126Z,62.80
2019-04-29T22:45:59.726Z,62.70
2019-04-29T22:48:30.147Z,62.70
2019-04-29T22:51:00.605Z,62.60
2019-04-29T22:53:31.089Z,62.50
2019-04-29T22:56:02.390Z,62.60
2019-04-29T22:58:34.953Z,62.40
2019-04-29T23:01:06.821Z,62.40
2019-04-29T23:03:38.862Z,62.40
2019-04-29T23:06:09.338Z,62.20
2019-04-29T23:08:39.728Z,62.30
2019-04-29T23:11:10.221Z,62.10
2019-04-29T23:13:40.650Z,62.20
2019-04-29T23:16:11.241Z,62.20
2019-04-29T23:18:42.313Z,62.30
2019-04-29T23:21:16.470Z,62.30
2019-04-29T23:23:51.323Z,62.30
2019-04-29T23:26:21.747Z,62.20
2019-04-29T23:28:52.124Z,62.20
2019-04-29T23:31:27.230Z,62.10
2019-04-29T23:33:56.476Z,62.20
2019-04-29T23:36:27.090Z,62.20
2019-04-29T23:38:57.471Z,62.10
2019-04-29T23:41:33.117Z,62.20
2019-04-29T23:44:04.335Z,62.40
2019-04-29T23:46:34.329Z,62.40
2019-04-29T23:49:06.625Z,62.50
2019-04-29T23:51:37.721Z,62.40
2019-04-29T23:54:08.500Z,62.60
2019-04-29T23:56:42.815Z,62.60
2019-04-29T23:59:25.040Z,62.40
